sensor_id;sensor_type;location;lat;lon;timestamp;P1;durP1;ratioP1;P2;durP2;ratioP2
60312;SDS011;46158;52.850;6.970;2023-06-22T00:01:58;5.57;;;2.67;;
60312;SDS011;46158;52.850;6.970;2023-06-22T00:04:24;5.70;;;2.58;;
60312;SDS011;46158;52.850;6.970;2023-06-22T00:06:50;6.00;;;2.53;;
60312;SDS011;46158;52.850;6.970;2023-06-22T00:09:16;4.50;;;2.35;;
60312;SDS011;46158;52.850;6.970;2023-06-22T00:11:41;4.50;;;2.63;;
60312;SDS011;46158;52.850;6.970;2023-06-22T00:14:07;4.03;;;2.40;;
60312;SDS011;46158;52.850;6.970;2023-06-22T00:16:33;4.78;;;2.60;;
60312;SDS011;46158;52.850;6.970;2023-06-22T00:18:59;3.65;;;2.30;;
60312;SDS011;46158;52.850;6.970;2023-06-22T00:21:27;5.20;;;2.60;;
60312;SDS011;46158;52.850;6.970;2023-06-22T00:23:52;3.55;;;2.30;;
60312;SDS011;46158;52.850;6.970;2023-06-22T00:26:18;3.25;;;2.28;;
60312;SDS011;46158;52.850;6.970;2023-06-22T00:28:44;5.10;;;2.28;;
60312;SDS011;46158;52.850;6.970;2023-06-22T00:31:10;4.70;;;2.30;;
60312;SDS011;46158;52.850;6.970;2023-06-22T00:33:36;4.13;;;2.50;;
60312;SDS011;46158;52.850;6.970;2023-06-22T00:36:01;6.68;;;2.60;;
60312;SDS011;46158;52.850;6.970;2023-06-22T00:38:28;8.98;;;2.80;;
60312;SDS011;46158;52.850;6.970;2023-06-22T00:40:54;3.35;;;2.35;;
60312;SDS011;46158;52.850;6.970;2023-06-22T00:43:19;4.93;;;2.47;;
60312;SDS011;46158;52.850;6.970;2023-06-22T00:45:45;5.45;;;2.40;;
60312;SDS011;46158;52.850;6.970;2023-06-22T00:48:11;6.00;;;2.60;;
60312;SDS011;46158;52.850;6.970;2023-06-22T00:50:37;5.65;;;2.70;;
60312;SDS011;46158;52.850;6.970;2023-06-22T00:53:04;4.15;;;2.45;;
60312;SDS011;46158;52.850;6.970;2023-06-22T00:55:33;5.50;;;2.80;;
60312;SDS011;46158;52.850;6.970;2023-06-22T00:58:03;4.55;;;2.40;;
60312;SDS011;46158;52.850;6.970;2023-06-22T01:00:33;4.55;;;2.50;;
60312;SDS011;46158;52.850;6.970;2023-06-22T01:02:59;4.25;;;2.55;;
60312;SDS011;46158;52.850;6.970;2023-06-22T01:05:24;3.90;;;2.40;;
60312;SDS011;46158;52.850;6.970;2023-06-22T01:13:18;5.47;;;2.50;;
60312;SDS011;46158;52.850;6.970;2023-06-22T01:15:51;5.03;;;2.60;;
60312;SDS011;46158;52.850;6.970;2023-06-22T01:18:21;5.22;;;2.65;;
60312;SDS011;46158;52.850;6.970;2023-06-22T01:20:50;5.45;;;2.50;;
60312;SDS011;46158;52.850;6.970;2023-06-22T01:25:59;4.00;;;2.50;;
60312;SDS011;46158;52.850;6.970;2023-06-22T01:28:49;5.40;;;2.95;;
60312;SDS011;46158;52.850;6.970;2023-06-22T01:31:18;5.07;;;2.72;;
60312;SDS011;46158;52.850;6.970;2023-06-22T01:33:48;4.50;;;2.58;;
60312;SDS011;46158;52.850;6.970;2023-06-22T01:36:17;4.53;;;2.70;;
60312;SDS011;46158;52.850;6.970;2023-06-22T01:38:44;4.68;;;2.67;;
60312;SDS011;46158;52.850;6.970;2023-06-22T01:41:12;5.82;;;2.90;;
60312;SDS011;46158;52.850;6.970;2023-06-22T01:43:38;4.65;;;2.70;;
60312;SDS011;46158;52.850;6.970;2023-06-22T01:46:04;7.70;;;3.35;;
60312;SDS011;46158;52.850;6.970;2023-06-22T01:48:31;5.30;;;2.72;;
60312;SDS011;46158;52.850;6.970;2023-06-22T01:50:57;7.28;;;3.10;;
60312;SDS011;46158;52.850;6.970;2023-06-22T01:53:23;7.82;;;3.30;;
60312;SDS011;46158;52.850;6.970;2023-06-22T01:55:49;6.13;;;2.80;;
60312;SDS011;46158;52.850;6.970;2023-06-22T01:58:15;7.85;;;3.03;;
60312;SDS011;46158;52.850;6.970;2023-06-22T02:00:44;7.22;;;3.05;;
60312;SDS011;46158;52.850;6.970;2023-06-22T02:03:23;5.75;;;2.97;;
60312;SDS011;46158;52.850;6.970;2023-06-22T02:05:57;5.85;;;2.90;;
60312;SDS011;46158;52.850;6.970;2023-06-22T02:08:28;6.50;;;3.00;;
60312;SDS011;46158;52.850;6.970;2023-06-22T02:11:00;5.68;;;2.67;;
60312;SDS011;46158;52.850;6.970;2023-06-22T02:13:27;5.45;;;2.85;;
60312;SDS011;46158;52.850;6.970;2023-06-22T02:15:53;5.70;;;2.75;;
60312;SDS011;46158;52.850;6.970;2023-06-22T02:18:19;6.80;;;2.97;;
60312;SDS011;46158;52.850;6.970;2023-06-22T02:20:45;5.30;;;2.90;;
60312;SDS011;46158;52.850;6.970;2023-06-22T02:23:11;5.70;;;2.83;;
60312;SDS011;46158;52.850;6.970;2023-06-22T02:25:37;5.72;;;2.78;;
60312;SDS011;46158;52.850;6.970;2023-06-22T02:28:03;6.50;;;2.92;;
60312;SDS011;46158;52.850;6.970;2023-06-22T02:30:29;7.47;;;3.03;;
60312;SDS011;46158;52.850;6.970;2023-06-22T02:32:54;5.22;;;2.75;;
60312;SDS011;46158;52.850;6.970;2023-06-22T02:35:30;6.68;;;2.92;;
60312;SDS011;46158;52.850;6.970;2023-06-22T02:38:02;5.68;;;2.70;;
60312;SDS011;46158;52.850;6.970;2023-06-22T02:40:29;5.93;;;2.70;;
60312;SDS011;46158;52.850;6.970;2023-06-22T02:42:55;6.82;;;2.92;;
60312;SDS011;46158;52.850;6.970;2023-06-22T02:45:23;6.07;;;2.70;;
60312;SDS011;46158;52.850;6.970;2023-06-22T02:47:49;5.82;;;3.00;;
60312;SDS011;46158;52.850;6.970;2023-06-22T02:50:15;7.13;;;2.88;;
60312;SDS011;46158;52.850;6.970;2023-06-22T02:52:40;5.22;;;2.65;;
60312;SDS011;46158;52.850;6.970;2023-06-22T02:55:06;6.15;;;2.80;;
60312;SDS011;46158;52.850;6.970;2023-06-22T02:57:33;7.35;;;2.80;;
60312;SDS011;46158;52.850;6.970;2023-06-22T02:59:59;4.82;;;2.63;;
60312;SDS011;46158;52.850;6.970;2023-06-22T03:02:24;5.47;;;2.72;;
60312;SDS011;46158;52.850;6.970;2023-06-22T03:04:51;5.65;;;2.80;;
60312;SDS011;46158;52.850;6.970;2023-06-22T03:07:18;5.85;;;2.88;;
60312;SDS011;46158;52.850;6.970;2023-06-22T03:09:45;6.03;;;2.90;;
60312;SDS011;46158;52.850;6.970;2023-06-22T03:12:11;5.38;;;2.70;;
60312;SDS011;46158;52.850;6.970;2023-06-22T03:14:36;6.97;;;3.15;;
60312;SDS011;46158;52.850;6.970;2023-06-22T03:17:04;9.00;;;2.90;;
60312;SDS011;46158;52.850;6.970;2023-06-22T03:19:30;6.68;;;2.90;;
60312;SDS011;46158;52.850;6.970;2023-06-22T03:21:59;5.30;;;2.75;;
60312;SDS011;46158;52.850;6.970;2023-06-22T03:24:25;4.82;;;2.65;;
60312;SDS011;46158;52.850;6.970;2023-06-22T03:26:53;5.15;;;2.70;;
60312;SDS011;46158;52.850;6.970;2023-06-22T03:29:19;5.95;;;2.63;;
60312;SDS011;46158;52.850;6.970;2023-06-22T03:31:45;5.18;;;2.80;;
60312;SDS011;46158;52.850;6.970;2023-06-22T03:34:11;5.78;;;2.65;;
60312;SDS011;46158;52.850;6.970;2023-06-22T03:36:36;4.65;;;2.58;;
60312;SDS011;46158;52.850;6.970;2023-06-22T03:39:02;5.28;;;2.70;;
60312;SDS011;46158;52.850;6.970;2023-06-22T03:41:28;7.18;;;3.13;;
60312;SDS011;46158;52.850;6.970;2023-06-22T03:43:54;6.18;;;2.90;;
60312;SDS011;46158;52.850;6.970;2023-06-22T03:46:19;4.82;;;2.72;;
60312;SDS011;46158;52.850;6.970;2023-06-22T03:48:45;5.03;;;2.90;;
60312;SDS011;46158;52.850;6.970;2023-06-22T03:51:11;5.30;;;2.70;;
60312;SDS011;46158;52.850;6.970;2023-06-22T03:53:37;6.07;;;2.58;;
60312;SDS011;46158;52.850;6.970;2023-06-22T03:56:02;4.10;;;2.40;;
60312;SDS011;46158;52.850;6.970;2023-06-22T03:58:28;4.93;;;2.70;;
60312;SDS011;46158;52.850;6.970;2023-06-22T04:00:58;5.32;;;2.53;;
60312;SDS011;46158;52.850;6.970;2023-06-22T04:03:25;4.78;;;2.72;;
60312;SDS011;46158;52.850;6.970;2023-06-22T04:05:50;5.22;;;2.70;;
60312;SDS011;46158;52.850;6.970;2023-06-22T04:08:16;4.53;;;2.53;;
60312;SDS011;46158;52.850;6.970;2023-06-22T04:10:43;3.97;;;2.53;;
60312;SDS011;46158;52.850;6.970;2023-06-22T04:13:08;5.50;;;2.30;;
60312;SDS011;46158;52.850;6.970;2023-06-22T04:15:34;4.95;;;2.70;;
60312;SDS011;46158;52.850;6.970;2023-06-22T04:18:00;4.22;;;2.53;;
60312;SDS011;46158;52.850;6.970;2023-06-22T04:20:26;5.03;;;2.60;;
60312;SDS011;46158;52.850;6.970;2023-06-22T04:22:52;4.22;;;2.58;;
60312;SDS011;46158;52.850;6.970;2023-06-22T04:25:19;5.82;;;2.80;;
60312;SDS011;46158;52.850;6.970;2023-06-22T04:27:45;4.72;;;2.55;;
60312;SDS011;46158;52.850;6.970;2023-06-22T04:30:11;4.55;;;2.50;;
60312;SDS011;46158;52.850;6.970;2023-06-22T04:32:40;4.47;;;2.70;;
60312;SDS011;46158;52.850;6.970;2023-06-22T04:35:06;5.10;;;2.60;;
60312;SDS011;46158;52.850;6.970;2023-06-22T04:37:33;5.70;;;2.72;;
60312;SDS011;46158;52.850;6.970;2023-06-22T04:39:59;5.10;;;2.70;;
60312;SDS011;46158;52.850;6.970;2023-06-22T04:42:28;16.67;;;6.78;;
60312;SDS011;46158;52.850;6.970;2023-06-22T04:44:57;21.58;;;10.68;;
60312;SDS011;46158;52.850;6.970;2023-06-22T04:47:26;22.42;;;11.82;;
60312;SDS011;46158;52.850;6.970;2023-06-22T04:49:52;21.23;;;11.95;;
60312;SDS011;46158;52.850;6.970;2023-06-22T04:52:20;24.33;;;14.85;;
60312;SDS011;46158;52.850;6.970;2023-06-22T04:54:46;22.02;;;12.05;;
60312;SDS011;46158;52.850;6.970;2023-06-22T04:57:21;23.08;;;13.63;;
60312;SDS011;46158;52.850;6.970;2023-06-22T04:59:55;24.30;;;14.27;;
60312;SDS011;46158;52.850;6.970;2023-06-22T05:02:21;24.15;;;15.20;;
60312;SDS011;46158;52.850;6.970;2023-06-22T05:04:48;23.08;;;14.30;;
60312;SDS011;46158;52.850;6.970;2023-06-22T05:07:18;24.05;;;13.63;;
60312;SDS011;46158;52.850;6.970;2023-06-22T05:09:44;24.10;;;14.52;;
60312;SDS011;46158;52.850;6.970;2023-06-22T05:12:10;25.25;;;15.98;;
60312;SDS011;46158;52.850;6.970;2023-06-22T05:14:54;26.83;;;17.48;;
60312;SDS011;46158;52.850;6.970;2023-06-22T05:17:20;29.73;;;19.92;;
60312;SDS011;46158;52.850;6.970;2023-06-22T05:19:47;29.13;;;19.33;;
60312;SDS011;46158;52.850;6.970;2023-06-22T05:22:17;28.38;;;19.08;;
60312;SDS011;46158;52.850;6.970;2023-06-22T05:24:43;27.88;;;19.23;;
60312;SDS011;46158;52.850;6.970;2023-06-22T05:27:09;28.75;;;19.10;;
60312;SDS011;46158;52.850;6.970;2023-06-22T05:29:38;29.13;;;20.83;;
60312;SDS011;46158;52.850;6.970;2023-06-22T05:32:05;30.30;;;21.45;;
60312;SDS011;46158;52.850;6.970;2023-06-22T05:34:31;32.72;;;20.42;;
60312;SDS011;46158;52.850;6.970;2023-06-22T05:36:57;31.33;;;20.70;;
60312;SDS011;46158;52.850;6.970;2023-06-22T05:39:26;31.23;;;19.42;;
60312;SDS011;46158;52.850;6.970;2023-06-22T05:41:51;27.13;;;17.65;;
60312;SDS011;46158;52.850;6.970;2023-06-22T05:44:18;26.50;;;15.95;;
60312;SDS011;46158;52.850;6.970;2023-06-22T05:46:44;24.90;;;12.95;;
60312;SDS011;46158;52.850;6.970;2023-06-22T05:49:12;22.70;;;12.15;;
60312;SDS011;46158;52.850;6.970;2023-06-22T05:51:38;22.15;;;11.25;;
60312;SDS011;46158;52.850;6.970;2023-06-22T05:54:04;24.58;;;11.82;;
60312;SDS011;46158;52.850;6.970;2023-06-22T05:56:30;21.42;;;10.93;;
60312;SDS011;46158;52.850;6.970;2023-06-22T05:58:56;22.23;;;10.48;;
60312;SDS011;46158;52.850;6.970;2023-06-22T06:01:22;21.40;;;10.38;;
60312;SDS011;46158;52.850;6.970;2023-06-22T06:03:48;20.70;;;10.02;;
60312;SDS011;46158;52.850;6.970;2023-06-22T06:06:14;20.70;;;9.70;;
60312;SDS011;46158;52.850;6.970;2023-06-22T06:08:40;21.85;;;10.05;;
60312;SDS011;46158;52.850;6.970;2023-06-22T06:11:09;20.05;;;8.98;;
60312;SDS011;46158;52.850;6.970;2023-06-22T06:13:35;20.33;;;9.50;;
60312;SDS011;46158;52.850;6.970;2023-06-22T06:16:01;22.63;;;10.02;;
60312;SDS011;46158;52.850;6.970;2023-06-22T06:18:27;22.13;;;9.27;;
60312;SDS011;46158;52.850;6.970;2023-06-22T06:20:52;21.65;;;9.27;;
60312;SDS011;46158;52.850;6.970;2023-06-22T06:23:18;22.10;;;8.75;;
60312;SDS011;46158;52.850;6.970;2023-06-22T06:25:44;22.90;;;8.73;;
60312;SDS011;46158;52.850;6.970;2023-06-22T06:28:10;22.65;;;8.70;;
60312;SDS011;46158;52.850;6.970;2023-06-22T06:30:36;22.73;;;9.32;;
60312;SDS011;46158;52.850;6.970;2023-06-22T06:33:02;22.40;;;8.68;;
60312;SDS011;46158;52.850;6.970;2023-06-22T06:35:34;24.05;;;10.02;;
60312;SDS011;46158;52.850;6.970;2023-06-22T06:38:00;24.38;;;9.38;;
60312;SDS011;46158;52.850;6.970;2023-06-22T06:40:25;23.27;;;9.90;;
60312;SDS011;46158;52.850;6.970;2023-06-22T06:42:51;23.38;;;9.10;;
60312;SDS011;46158;52.850;6.970;2023-06-22T06:45:20;23.95;;;8.93;;
60312;SDS011;46158;52.850;6.970;2023-06-22T06:47:47;24.25;;;8.75;;
60312;SDS011;46158;52.850;6.970;2023-06-22T06:50:14;22.60;;;8.38;;
60312;SDS011;46158;52.850;6.970;2023-06-22T06:52:40;23.35;;;9.23;;
60312;SDS011;46158;52.850;6.970;2023-06-22T06:55:06;24.90;;;7.93;;
60312;SDS011;46158;52.850;6.970;2023-06-22T06:57:34;23.08;;;8.07;;
60312;SDS011;46158;52.850;6.970;2023-06-22T07:00:00;25.33;;;8.60;;
60312;SDS011;46158;52.850;6.970;2023-06-22T07:02:26;22.33;;;7.68;;
60312;SDS011;46158;52.850;6.970;2023-06-22T07:04:54;23.10;;;7.50;;
60312;SDS011;46158;52.850;6.970;2023-06-22T07:07:20;20.15;;;7.40;;
60312;SDS011;46158;52.850;6.970;2023-06-22T07:09:46;22.90;;;8.15;;
60312;SDS011;46158;52.850;6.970;2023-06-22T07:12:12;21.25;;;7.13;;
60312;SDS011;46158;52.850;6.970;2023-06-22T07:14:38;22.08;;;7.95;;
60312;SDS011;46158;52.850;6.970;2023-06-22T07:17:04;20.60;;;6.90;;
60312;SDS011;46158;52.850;6.970;2023-06-22T07:19:29;23.90;;;7.70;;
60312;SDS011;46158;52.850;6.970;2023-06-22T07:21:56;22.45;;;7.50;;
60312;SDS011;46158;52.850;6.970;2023-06-22T07:24:22;20.95;;;6.93;;
60312;SDS011;46158;52.850;6.970;2023-06-22T07:26:48;21.58;;;6.82;;
60312;SDS011;46158;52.850;6.970;2023-06-22T07:29:18;19.55;;;6.68;;
60312;SDS011;46158;52.850;6.970;2023-06-22T07:31:46;21.52;;;6.43;;
60312;SDS011;46158;52.850;6.970;2023-06-22T07:34:14;20.77;;;6.45;;
60312;SDS011;46158;52.850;6.970;2023-06-22T07:36:43;20.30;;;6.35;;
60312;SDS011;46158;52.850;6.970;2023-06-22T07:39:09;21.73;;;6.50;;
60312;SDS011;46158;52.850;6.970;2023-06-22T07:41:35;20.75;;;5.72;;
60312;SDS011;46158;52.850;6.970;2023-06-22T07:44:05;19.33;;;6.13;;
60312;SDS011;46158;52.850;6.970;2023-06-22T07:46:31;20.33;;;5.72;;
60312;SDS011;46158;52.850;6.970;2023-06-22T07:48:57;18.48;;;5.75;;
60312;SDS011;46158;52.850;6.970;2023-06-22T07:51:24;18.52;;;5.55;;
60312;SDS011;46158;52.850;6.970;2023-06-22T07:53:50;17.77;;;5.68;;
60312;SDS011;46158;52.850;6.970;2023-06-22T07:56:16;16.90;;;5.28;;
60312;SDS011;46158;52.850;6.970;2023-06-22T07:58:46;15.82;;;4.63;;
60312;SDS011;46158;52.850;6.970;2023-06-22T08:01:13;13.55;;;4.00;;
60312;SDS011;46158;52.850;6.970;2023-06-22T08:03:40;13.85;;;3.90;;
60312;SDS011;46158;52.850;6.970;2023-06-22T08:06:06;14.80;;;4.07;;
60312;SDS011;46158;52.850;6.970;2023-06-22T08:08:34;11.52;;;4.05;;
60312;SDS011;46158;52.850;6.970;2023-06-22T08:11:00;14.73;;;3.92;;
60312;SDS011;46158;52.850;6.970;2023-06-22T08:13:29;14.70;;;4.22;;
60312;SDS011;46158;52.850;6.970;2023-06-22T08:15:57;12.90;;;4.13;;
60312;SDS011;46158;52.850;6.970;2023-06-22T08:18:23;14.10;;;4.13;;
60312;SDS011;46158;52.850;6.970;2023-06-22T08:20:49;11.95;;;3.80;;
60312;SDS011;46158;52.850;6.970;2023-06-22T08:23:15;13.73;;;4.05;;
60312;SDS011;46158;52.850;6.970;2023-06-22T08:25:43;13.40;;;4.00;;
60312;SDS011;46158;52.850;6.970;2023-06-22T08:28:11;12.95;;;4.07;;
60312;SDS011;46158;52.850;6.970;2023-06-22T08:30:38;15.13;;;4.22;;
60312;SDS011;46158;52.850;6.970;2023-06-22T08:33:04;14.35;;;4.00;;
60312;SDS011;46158;52.850;6.970;2023-06-22T08:35:29;13.38;;;3.75;;
60312;SDS011;46158;52.850;6.970;2023-06-22T08:37:55;15.15;;;4.22;;
60312;SDS011;46158;52.850;6.970;2023-06-22T08:40:22;13.40;;;4.15;;
60312;SDS011;46158;52.850;6.970;2023-06-22T08:42:49;12.80;;;4.05;;
60312;SDS011;46158;52.850;6.970;2023-06-22T08:45:15;14.05;;;4.15;;
60312;SDS011;46158;52.850;6.970;2023-06-22T08:47:42;11.77;;;3.45;;
60312;SDS011;46158;52.850;6.970;2023-06-22T08:50:08;12.40;;;3.88;;
60312;SDS011;46158;52.850;6.970;2023-06-22T08:52:35;12.90;;;3.63;;
60312;SDS011;46158;52.850;6.970;2023-06-22T08:55:02;13.00;;;4.13;;
60312;SDS011;46158;52.850;6.970;2023-06-22T08:57:29;13.57;;;4.03;;
60312;SDS011;46158;52.850;6.970;2023-06-22T09:00:08;13.20;;;3.88;;
60312;SDS011;46158;52.850;6.970;2023-06-22T09:02:41;14.70;;;4.15;;
60312;SDS011;46158;52.850;6.970;2023-06-22T09:05:06;12.02;;;3.70;;
60312;SDS011;46158;52.850;6.970;2023-06-22T09:07:33;14.35;;;3.95;;
60312;SDS011;46158;52.850;6.970;2023-06-22T09:09:59;14.38;;;4.22;;
60312;SDS011;46158;52.850;6.970;2023-06-22T09:12:26;15.90;;;4.30;;
60312;SDS011;46158;52.850;6.970;2023-06-22T09:14:52;11.73;;;3.58;;
60312;SDS011;46158;52.850;6.970;2023-06-22T09:17:18;15.30;;;4.00;;
60312;SDS011;46158;52.850;6.970;2023-06-22T09:19:44;14.48;;;3.83;;
60312;SDS011;46158;52.850;6.970;2023-06-22T09:22:10;13.57;;;4.05;;
60312;SDS011;46158;52.850;6.970;2023-06-22T09:24:36;13.45;;;3.83;;
60312;SDS011;46158;52.850;6.970;2023-06-22T09:27:01;12.48;;;3.70;;
60312;SDS011;46158;52.850;6.970;2023-06-22T09:29:27;13.68;;;3.90;;
60312;SDS011;46158;52.850;6.970;2023-06-22T09:31:53;14.70;;;3.85;;
60312;SDS011;46158;52.850;6.970;2023-06-22T09:34:19;11.43;;;3.67;;
60312;SDS011;46158;52.850;6.970;2023-06-22T09:36:48;12.18;;;3.70;;
60312;SDS011;46158;52.850;6.970;2023-06-22T09:39:14;11.63;;;3.65;;
60312;SDS011;46158;52.850;6.970;2023-06-22T09:41:39;13.95;;;4.07;;
60312;SDS011;46158;52.850;6.970;2023-06-22T09:44:05;12.15;;;3.75;;
60312;SDS011;46158;52.850;6.970;2023-06-22T09:46:31;13.00;;;3.88;;
60312;SDS011;46158;52.850;6.970;2023-06-22T09:48:57;13.50;;;3.80;;
60312;SDS011;46158;52.850;6.970;2023-06-22T09:51:22;11.80;;;3.80;;
60312;SDS011;46158;52.850;6.970;2023-06-22T09:53:52;10.48;;;3.45;;
60312;SDS011;46158;52.850;6.970;2023-06-22T09:58:47;10.13;;;3.45;;
60312;SDS011;46158;52.850;6.970;2023-06-22T10:01:15;11.93;;;3.72;;
60312;SDS011;46158;52.850;6.970;2023-06-22T10:03:41;10.50;;;3.70;;
60312;SDS011;46158;52.850;6.970;2023-06-22T10:06:06;10.07;;;3.60;;
60312;SDS011;46158;52.850;6.970;2023-06-22T10:08:34;13.52;;;3.80;;
60312;SDS011;46158;52.850;6.970;2023-06-22T10:11:01;11.43;;;3.72;;
60312;SDS011;46158;52.850;6.970;2023-06-22T10:13:28;11.85;;;3.63;;
60312;SDS011;46158;52.850;6.970;2023-06-22T10:15:54;10.93;;;3.55;;
60312;SDS011;46158;52.850;6.970;2023-06-22T10:18:20;11.50;;;3.67;;
60312;SDS011;46158;52.850;6.970;2023-06-22T10:20:49;10.60;;;3.50;;
60312;SDS011;46158;52.850;6.970;2023-06-22T10:23:20;10.93;;;3.58;;
60312;SDS011;46158;52.850;6.970;2023-06-22T10:25:46;13.05;;;3.60;;
60312;SDS011;46158;52.850;6.970;2023-06-22T10:28:13;12.77;;;3.38;;
60312;SDS011;46158;52.850;6.970;2023-06-22T10:30:39;9.45;;;3.30;;
60312;SDS011;46158;52.850;6.970;2023-06-22T10:33:09;11.63;;;3.70;;
60312;SDS011;46158;52.850;6.970;2023-06-22T10:35:35;9.32;;;3.20;;
60312;SDS011;46158;52.850;6.970;2023-06-22T10:38:02;12.02;;;3.60;;
60312;SDS011;46158;52.850;6.970;2023-06-22T10:40:28;12.48;;;3.60;;
60312;SDS011;46158;52.850;6.970;2023-06-22T10:42:54;6.75;;;3.20;;
60312;SDS011;46158;52.850;6.970;2023-06-22T10:45:20;10.40;;;3.53;;
60312;SDS011;46158;52.850;6.970;2023-06-22T10:47:46;12.48;;;3.65;;
60312;SDS011;46158;52.850;6.970;2023-06-22T10:50:12;11.55;;;3.50;;
60312;SDS011;46158;52.850;6.970;2023-06-22T10:52:41;11.00;;;3.83;;
60312;SDS011;46158;52.850;6.970;2023-06-22T10:55:07;10.55;;;3.65;;
60312;SDS011;46158;52.850;6.970;2023-06-22T10:57:34;11.02;;;3.65;;
60312;SDS011;46158;52.850;6.970;2023-06-22T11:00:00;10.75;;;3.72;;
60312;SDS011;46158;52.850;6.970;2023-06-22T11:02:25;8.85;;;3.42;;
60312;SDS011;46158;52.850;6.970;2023-06-22T11:04:53;11.38;;;3.65;;
60312;SDS011;46158;52.850;6.970;2023-06-22T11:07:19;13.18;;;3.65;;
60312;SDS011;46158;52.850;6.970;2023-06-22T11:09:45;11.18;;;3.72;;
60312;SDS011;46158;52.850;6.970;2023-06-22T11:12:11;13.85;;;3.78;;
60312;SDS011;46158;52.850;6.970;2023-06-22T11:14:36;8.15;;;3.42;;
60312;SDS011;46158;52.850;6.970;2023-06-22T11:17:03;7.38;;;3.15;;
60312;SDS011;46158;52.850;6.970;2023-06-22T11:19:29;11.48;;;3.40;;
60312;SDS011;46158;52.850;6.970;2023-06-22T11:21:55;9.13;;;3.22;;
60312;SDS011;46158;52.850;6.970;2023-06-22T11:24:21;8.25;;;3.33;;
60312;SDS011;46158;52.850;6.970;2023-06-22T11:27:08;9.55;;;3.20;;
60312;SDS011;46158;52.850;6.970;2023-06-22T11:29:33;9.02;;;3.30;;
60312;SDS011;46158;52.850;6.970;2023-06-22T11:31:59;11.30;;;3.67;;
60312;SDS011;46158;52.850;6.970;2023-06-22T11:34:25;11.93;;;3.72;;
60312;SDS011;46158;52.850;6.970;2023-06-22T11:36:51;9.50;;;3.30;;
60312;SDS011;46158;52.850;6.970;2023-06-22T11:39:27;10.75;;;3.55;;
60312;SDS011;46158;52.850;6.970;2023-06-22T11:42:00;10.18;;;3.60;;
60312;SDS011;46158;52.850;6.970;2023-06-22T11:44:25;8.90;;;3.47;;
60312;SDS011;46158;52.850;6.970;2023-06-22T11:46:51;10.32;;;3.50;;
60312;SDS011;46158;52.850;6.970;2023-06-22T11:49:17;10.93;;;3.40;;
60312;SDS011;46158;52.850;6.970;2023-06-22T11:51:42;10.48;;;3.40;;
60312;SDS011;46158;52.850;6.970;2023-06-22T11:54:08;8.23;;;3.10;;
60312;SDS011;46158;52.850;6.970;2023-06-22T11:56:34;10.73;;;3.33;;
60312;SDS011;46158;52.850;6.970;2023-06-22T11:59:08;8.48;;;3.40;;
60312;SDS011;46158;52.850;6.970;2023-06-22T12:01:40;10.65;;;3.90;;
60312;SDS011;46158;52.850;6.970;2023-06-22T12:04:25;10.02;;;3.47;;
60312;SDS011;46158;52.850;6.970;2023-06-22T12:06:57;11.30;;;3.67;;
60312;SDS011;46158;52.850;6.970;2023-06-22T12:09:26;8.10;;;3.23;;
60312;SDS011;46158;52.850;6.970;2023-06-22T12:11:52;9.77;;;3.80;;
60312;SDS011;46158;52.850;6.970;2023-06-22T12:14:18;11.25;;;3.50;;
60312;SDS011;46158;52.850;6.970;2023-06-22T12:16:56;7.90;;;3.10;;
60312;SDS011;46158;52.850;6.970;2023-06-22T12:19:28;8.40;;;3.38;;
60312;SDS011;46158;52.850;6.970;2023-06-22T12:21:57;9.88;;;3.25;;
60312;SDS011;46158;52.850;6.970;2023-06-22T12:24:26;9.85;;;3.47;;
60312;SDS011;46158;52.850;6.970;2023-06-22T12:26:52;8.63;;;3.40;;
60312;SDS011;46158;52.850;6.970;2023-06-22T12:29:17;7.63;;;3.15;;
60312;SDS011;46158;52.850;6.970;2023-06-22T12:31:44;8.23;;;3.22;;
60312;SDS011;46158;52.850;6.970;2023-06-22T12:34:10;8.70;;;2.97;;
60312;SDS011;46158;52.850;6.970;2023-06-22T12:36:36;8.07;;;3.22;;
60312;SDS011;46158;52.850;6.970;2023-06-22T12:39:02;6.65;;;3.03;;
60312;SDS011;46158;52.850;6.970;2023-06-22T12:41:28;7.70;;;3.10;;
60312;SDS011;46158;52.850;6.970;2023-06-22T12:43:54;7.00;;;3.45;;
60312;SDS011;46158;52.850;6.970;2023-06-22T12:46:20;8.68;;;3.13;;
60312;SDS011;46158;52.850;6.970;2023-06-22T12:48:46;8.38;;;3.35;;
60312;SDS011;46158;52.850;6.970;2023-06-22T12:51:11;7.22;;;3.10;;
60312;SDS011;46158;52.850;6.970;2023-06-22T12:53:37;6.82;;;3.00;;
60312;SDS011;46158;52.850;6.970;2023-06-22T12:56:03;7.85;;;3.15;;
60312;SDS011;46158;52.850;6.970;2023-06-22T12:58:29;8.40;;;3.10;;
60312;SDS011;46158;52.850;6.970;2023-06-22T13:00:55;7.72;;;3.22;;
60312;SDS011;46158;52.850;6.970;2023-06-22T13:03:24;7.25;;;3.05;;
60312;SDS011;46158;52.850;6.970;2023-06-22T13:05:51;10.63;;;3.58;;
60312;SDS011;46158;52.850;6.970;2023-06-22T13:08:17;7.90;;;3.20;;
60312;SDS011;46158;52.850;6.970;2023-06-22T13:10:43;5.72;;;2.90;;
60312;SDS011;46158;52.850;6.970;2023-06-22T13:13:08;7.32;;;3.25;;
60312;SDS011;46158;52.850;6.970;2023-06-22T13:15:34;7.40;;;3.22;;
60312;SDS011;46158;52.850;6.970;2023-06-22T13:18:00;7.30;;;2.88;;
60312;SDS011;46158;52.850;6.970;2023-06-22T13:20:26;6.45;;;2.97;;
60312;SDS011;46158;52.850;6.970;2023-06-22T13:22:53;6.40;;;3.10;;
60312;SDS011;46158;52.850;6.970;2023-06-22T13:25:19;7.70;;;3.03;;
60312;SDS011;46158;52.850;6.970;2023-06-22T13:27:47;8.70;;;3.10;;
60312;SDS011;46158;52.850;6.970;2023-06-22T13:30:14;7.80;;;3.08;;
60312;SDS011;46158;52.850;6.970;2023-06-22T13:32:40;9.93;;;3.42;;
60312;SDS011;46158;52.850;6.970;2023-06-22T13:37:36;10.93;;;3.17;;
60312;SDS011;46158;52.850;6.970;2023-06-22T13:40:03;6.45;;;2.92;;
60312;SDS011;46158;52.850;6.970;2023-06-22T13:42:32;7.63;;;2.92;;
60312;SDS011;46158;52.850;6.970;2023-06-22T13:45:00;6.00;;;3.00;;
60312;SDS011;46158;52.850;6.970;2023-06-22T13:47:26;6.72;;;3.10;;
60312;SDS011;46158;52.850;6.970;2023-06-22T13:49:54;6.13;;;3.05;;
60312;SDS011;46158;52.850;6.970;2023-06-22T13:52:21;9.68;;;3.28;;
60312;SDS011;46158;52.850;6.970;2023-06-22T13:54:47;6.53;;;2.85;;
60312;SDS011;46158;52.850;6.970;2023-06-22T13:57:13;6.43;;;2.78;;
60312;SDS011;46158;52.850;6.970;2023-06-22T13:59:39;8.43;;;3.17;;
60312;SDS011;46158;52.850;6.970;2023-06-22T14:02:07;8.07;;;3.10;;
60312;SDS011;46158;52.850;6.970;2023-06-22T14:04:33;7.80;;;3.00;;
60312;SDS011;46158;52.850;6.970;2023-06-22T14:06:59;6.65;;;3.13;;
60312;SDS011;46158;52.850;6.970;2023-06-22T14:09:34;6.32;;;2.90;;
60312;SDS011;46158;52.850;6.970;2023-06-22T14:12:07;6.63;;;2.90;;
60312;SDS011;46158;52.850;6.970;2023-06-22T14:14:33;7.85;;;3.20;;
60312;SDS011;46158;52.850;6.970;2023-06-22T14:16:59;6.13;;;2.95;;
60312;SDS011;46158;52.850;6.970;2023-06-22T14:19:28;6.45;;;2.90;;
60312;SDS011;46158;52.850;6.970;2023-06-22T14:21:54;7.75;;;2.95;;
60312;SDS011;46158;52.850;6.970;2023-06-22T14:24:22;7.28;;;3.13;;
60312;SDS011;46158;52.850;6.970;2023-06-22T14:26:48;5.75;;;2.70;;
60312;SDS011;46158;52.850;6.970;2023-06-22T14:29:17;5.03;;;2.60;;
60312;SDS011;46158;52.850;6.970;2023-06-22T14:31:46;6.55;;;2.88;;
60312;SDS011;46158;52.850;6.970;2023-06-22T14:34:12;5.10;;;2.80;;
60312;SDS011;46158;52.850;6.970;2023-06-22T14:36:38;5.88;;;2.88;;
60312;SDS011;46158;52.850;6.970;2023-06-22T14:39:03;5.05;;;2.70;;
60312;SDS011;46158;52.850;6.970;2023-06-22T14:41:32;8.07;;;3.22;;
60312;SDS011;46158;52.850;6.970;2023-06-22T14:43:58;5.85;;;2.78;;
60312;SDS011;46158;52.850;6.970;2023-06-22T14:46:24;7.53;;;3.00;;
60312;SDS011;46158;52.850;6.970;2023-06-22T14:48:53;6.95;;;2.92;;
60312;SDS011;46158;52.850;6.970;2023-06-22T14:51:19;5.20;;;2.70;;
60312;SDS011;46158;52.850;6.970;2023-06-22T14:53:45;8.30;;;3.03;;